Time;durP1;ratioP1;P1;durP2;ratioP2;P2;SDS_P1;SDS_P2;PMS_P1;PMS_P2;Temp;Humidity;BMP_temperature;BMP_pressure;BME280_temperature;BME280_humidity;BME280_pressure;Samples;Min_cycle;Max_cycle;Signal;HPM_P1;HPM_P2
2022/08/04 00:01:06;;;;;;;25.15;22.65;;;;;;;20.46;94.27;100495.80;1756479;81;21838;-91
2022/08/04 00:03:44;;;;;;;23.32;20.92;;;;;;;20.45;94.19;100491.95;1755897;80;21402;-92
2022/08/04 00:06:31;;;;;;;24.20;21.12;;;;;;;20.44;94.34;100500.45;1756663;80;20976;-92
2022/08/04 00:09:04;;;;;;;23.40;20.95;;;;;;;20.43;94.40;100493.47;1756580;81;20963;-91
2022/08/04 00:11:32;;;;;;;24.30;21.90;;;;;;;20.42;94.74;100490.45;1756886;81;20955;-92
2022/08/04 00:14:09;;;;;;;23.95;20.97;;;;;;;20.42;94.74;100490.45;1756810;81;22291;-92
2022/08/04 00:16:36;;;;;;;25.10;22.50;;;;;;;20.41;94.62;100495.45;1756392;80;20916;-93
2022/08/04 00:19:16;;;;;;;25.40;22.73;;;;;;;20.39;94.52;100495.28;1768201;80;20920;-91
2022/08/04 00:21:57;;;;;;;23.77;21.27;;;;;;;20.39;94.46;100496.61;1783691;80;20853;-91
2022/08/04 00:24:24;;;;;;;23.55;21.00;;;;;;;20.38;94.38;100490.94;1784120;80;20916;-91
2022/08/04 00:26:53;;;;;;;25.17;22.25;;;;;;;20.35;94.49;100495.25;1783663;80;21279;-92
2022/08/04 00:29:21;;;;;;;23.52;21.23;;;;;;;20.34;94.54;100500.23;1783081;80;20888;-92
2022/08/04 00:31:48;;;;;;;23.15;20.85;;;;;;;20.33;94.62;100503.90;1783679;80;20940;-92
2022/08/04 00:34:14;;;;;;;22.20;20.02;;;;;;;20.33;94.62;100502.56;1783728;80;21377;-91
2022/08/04 00:36:44;;;;;;;22.77;20.72;;;;;;;20.32;94.45;100503.55;1783488;80;20876;-90
2022/08/04 00:39:12;;;;;;;21.65;19.35;;;;;;;20.30;94.63;100503.72;1783588;80;21941;-91
2022/08/04 00:41:51;;;;;;;21.30;19.40;;;;;;;20.32;94.73;100507.54;1783471;80;20904;-91
2022/08/04 00:44:31;;;;;;;20.75;18.85;;;;;;;20.32;94.76;100500.88;1777598;80;20928;-91
2022/08/04 00:47:39;;;;;;;21.62;19.55;;;;;;;20.33;94.83;100500.73;1782865;80;21405;-91
2022/08/04 00:50:15;;;;;;;22.22;19.70;;;;;;;20.34;94.69;100506.38;1783779;80;20916;-92
2022/08/04 00:53:02;;;;;;;21.02;19.05;;;;;;;20.33;94.48;100510.05;1782411;80;21264;-92
2022/08/04 00:55:54;;;;;;;22.27;20.08;;;;;;;20.33;94.46;100510.05;1783542;80;20955;-91
2022/08/04 00:58:44;;;;;;;22.32;20.27;;;;;;;20.34;94.57;100517.54;1783583;80;20904;-91
2022/08/04 01:01:41;;;;;;;23.67;20.50;;;;;;;20.33;94.51;100515.88;1783485;80;21486;-91
2022/08/04 01:04:44;;;;;;;21.85;19.80;;;;;;;20.33;94.35;100519.38;1783613;80;21523;-91
2022/08/04 01:07:25;;;;;;;20.90;19.10;;;;;;;20.34;94.35;100525.53;1783770;80;21223;-92
2022/08/04 01:10:07;;;;;;;21.15;19.15;;;;;;;20.34;94.39;100520.20;1783518;80;20907;-92
2022/08/04 01:13:00;;;;;;;20.88;18.98;;;;;;;20.33;94.35;100519.38;1783512;80;20896;-91
2022/08/04 01:15:46;;;;;;;20.05;18.23;;;;;;;20.32;94.24;100517.72;1783833;80;20911;-92
2022/08/04 01:18:23;;;;;;;20.08;18.32;;;;;;;20.32;94.09;100527.52;1783736;80;21342;-90
2022/08/04 01:21:23;;;;;;;18.70;17.20;;;;;;;20.31;94.15;100532.52;1782665;80;21301;-90
2022/08/04 01:24:19;;;;;;;20.65;18.77;;;;;;;20.29;94.22;100528.16;1783642;80;20889;-90
2022/08/04 01:27:12;;;;;;;20.10;18.07;;;;;;;20.29;94.20;100535.33;1781412;80;20946;-91
2022/08/04 01:29:47;;;;;;;20.15;18.40;;;;;;;20.29;94.14;100540.15;1783389;80;20848;-91
2022/08/04 01:32:34;;;;;;;19.20;17.60;;;;;;;20.28;94.20;100533.17;1785136;79;20896;-90
2022/08/04 01:35:14;;;;;;;20.02;18.15;;;;;;;20.28;94.03;100535.83;1785242;79;21103;-90
2022/08/04 01:38:03;;;;;;;20.23;18.32;;;;;;;20.25;94.14;100534.83;1761791;80;20952;-91
2022/08/04 01:40:30;;;;;;;19.87;18.05;;;;;;;20.23;94.12;100532.81;1757778;80;20924;-88
2022/08/04 01:42:57;;;;;;;20.17;18.40;;;;;;;20.23;94.36;100546.13;1783643;80;21400;-91
2022/08/04 01:45:24;;;;;;;31.25;28.20;;;;;;;20.22;94.32;100539.11;1783703;80;20900;-90
2022/08/04 01:47:53;;;;;;;21.93;19.82;;;;;;;20.22;94.38;100537.78;1784010;80;21338;-89
2022/08/04 01:50:20;;;;;;;23.30;18.70;;;;;;;20.23;94.50;100534.14;1783880;80;20971;-90
2022/08/04 01:52:47;;;;;;;19.82;17.85;;;;;;;20.24;94.46;100536.30;1783822;80;20920;-90
2022/08/04 01:55:15;;;;;;;18.50;16.85;;;;;;;20.23;94.50;100535.48;1783842;80;21487;-90
2022/08/04 02:00:38;;;;;;;17.55;15.95;;;;;;;20.30;94.67;100537.02;1798629;79;22206;-90
2022/08/04 02:03:05;;;;;;;19.55;17.70;;;;;;;20.27;94.51;100535.98;1759378;80;20940;-90
2022/08/04 02:05:33;;;;;;;20.80;18.80;;;;;;;20.26;94.42;100537.81;1759392;80;21131;-91
2022/08/04 02:08:23;;;;;;;20.10;18.30;;;;;;;20.28;94.61;100541.66;1759507;80;20900;-91
2022/08/04 02:11:16;;;;;;;20.10;18.17;;;;;;;20.27;94.53;100542.64;1758881;81;20920;-89
2022/08/04 02:13:51;;;;;;;19.07;17.40;;;;;;;20.27;94.46;100542.64;1758995;80;20901;-89
2022/08/04 02:16:40;;;;;;;19.67;17.73;;;;;;;20.26;94.45;100548.97;1759167;81;20908;-90
2022/08/04 02:19:36;;;;;;;20.37;18.57;;;;;;;20.27;94.33;100550.13;1759179;80;21244;-91
2022/08/04 02:22:08;;;;;;;20.60;18.80;;;;;;;20.28;93.90;100550.48;1758973;78;20849;-92
2022/08/04 02:24:43;;;;;;;21.40;19.27;;;;;;;20.28;93.78;100548.31;1759334;80;20983;-93
2022/08/04 02:27:10;;;;;;;19.80;17.95;;;;;;;20.29;93.45;100548.64;1759198;81;20861;-91
2022/08/04 02:29:56;;;;;;;19.95;18.25;;;;;;;20.29;93.23;100545.48;1759230;80;20982;-91
2022/08/04 02:32:28;;;;;;;21.23;19.25;;;;;;;20.32;93.31;100540.83;1759199;81;21228;-92
2022/08/04 02:35:08;;;;;;;20.00;18.10;;;;;;;20.32;92.81;100547.02;1759558;81;20967;-91
2022/08/04 02:37:34;;;;;;;20.65;18.65;;;;;;;20.32;92.63;100540.83;1759249;80;21023;-89
2022/08/04 02:40:04;;;;;;;19.40;17.50;;;;;;;20.32;92.69;100541.69;1759320;80;20884;-90
2022/08/04 02:42:34;;;;;;;20.70;18.90;;;;;;;20.35;92.77;100540.53;1759250;81;20923;-91
2022/08/04 02:45:01;;;;;;;20.15;18.17;;;;;;;20.38;92.74;100541.54;1759210;80;21149;-89
2022/08/04 02:47:28;;;;;;;19.50;17.50;;;;;;;20.42;92.94;100546.89;1759023;81;20984;-89
2022/08/04 02:49:56;;;;;;;21.15;19.23;;;;;;;20.45;92.94;100537.24;1759428;81;21134;-91
2022/08/04 02:52:23;;;;;;;19.52;17.82;;;;;;;20.44;92.87;100539.08;1759235;80;20948;-91
2022/08/04 02:54:55;;;;;;;20.20;18.02;;;;;;;20.45;92.94;100538.58;1759351;81;20939;-90
2022/08/04 02:57:28;;;;;;;22.15;18.85;;;;;;;20.46;93.05;100545.09;1759232;80;21227;-91
2022/08/04 03:00:13;;;;;;;20.45;18.37;;;;;;;20.48;92.89;100539.61;1753288;80;20924;-90
2022/08/04 03:03:10;;;;;;;21.40;19.12;;;;;;;20.49;92.87;100542.09;1746586;81;20858;-89
2022/08/04 03:06:11;;;;;;;21.93;19.75;;;;;;;20.49;92.78;100538.60;1746326;81;20969;-90
2022/08/04 03:09:02;;;;;;;21.05;17.90;;;;;;;20.46;92.74;100539.76;1746209;81;20929;-90
2022/08/04 03:12:06;;;;;;;19.92;18.00;;;;;;;20.44;92.75;100535.08;1745765;81;21240;-90
2022/08/04 03:15:07;;;;;;;20.37;18.57;;;;;;;20.44;92.78;100538.25;1723041;81;20925;-90
2022/08/04 03:18:21;;;;;;;19.67;18.02;;;;;;;20.42;92.78;100534.41;1745857;81;20853;-90
2022/08/04 03:21:30;;;;;;;19.12;17.42;;;;;;;20.41;92.66;100535.88;1745977;81;20915;-92
2022/08/04 03:24:28;;;;;;;20.02;18.23;;;;;;;20.38;92.77;100533.55;1745747;81;20948;-92
2022/08/04 03:27:11;;;;;;;20.65;17.85;;;;;;;20.38;92.85;100528.22;1745758;81;21791;-91
2022/08/04 03:30:09;;;;;;;21.10;19.27;;;;;;;20.38;93.05;100533.55;1745476;81;20971;-90
2022/08/04 03:33:08;;;;;;;20.95;18.92;;;;;;;20.38;93.26;100534.88;1745799;81;20897;-90
2022/08/04 03:36:05;;;;;;;20.62;18.85;;;;;;;20.35;93.21;100532.05;1746243;81;20976;-87
2022/08/04 03:39:10;;;;;;;20.32;18.37;;;;;;;20.34;93.30;100530.35;1735456;81;20905;-90
2022/08/04 03:41:55;;;;;;;23.75;21.35;;;;;;;20.33;93.43;100535.86;1745666;81;21235;-89
2022/08/04 03:44:45;;;;;;;21.65;19.27;;;;;;;20.32;93.57;100533.70;1745858;81;20833;-90
2022/08/04 03:47:40;;;;;;;20.48;18.57;;;;;;;20.33;93.68;100538.52;1746139;81;20862;-91
2022/08/04 03:50:30;;;;;;;20.65;18.77;;;;;;;20.32;93.80;100536.36;1729492;81;20928;-91
2022/08/04 03:53:26;;;;;;;21.40;19.42;;;;;;;20.33;94.03;100534.53;1745200;81;20925;-88
2022/08/04 03:56:08;;;;;;;21.52;19.52;;;;;;;20.33;94.22;100536.69;1745607;81;21187;-91
2022/08/04 03:58:59;;;;;;;20.05;18.05;;;;;;;20.36;94.26;100542.19;1745134;81;20964;-90
2022/08/04 04:01:46;;;;;;;21.90;19.70;;;;;;;20.38;94.33;100538.87;1758552;80;20909;-90
2022/08/04 04:04:46;;;;;;;23.25;21.10;;;;;;;20.39;94.27;100543.23;1759043;81;20884;-91
2022/08/04 04:07:24;;;;;;;22.22;20.12;;;;;;;20.39;94.39;100546.72;1758875;81;21390;-91
2022/08/04 04:10:25;;;;;;;21.85;19.75;;;;;;;20.40;94.48;100539.05;1759007;81;21128;-92
2022/08/04 04:13:26;;;;;;;28.32;25.62;;;;;;;20.41;94.55;100548.73;1759128;80;20845;-92
2022/08/04 04:16:13;;;;;;;28.73;25.82;;;;;;;20.44;94.86;100552.40;1759249;81;20896;-91
2022/08/04 04:18:52;;;;;;;23.73;21.52;;;;;;;20.45;95.06;100546.56;1758915;81;20900;-91
2022/08/04 04:21:32;;;;;;;26.90;24.47;;;;;;;20.46;95.40;100546.42;1759220;80;21401;-90
2022/08/04 04:24:40;;;;;;;24.87;22.67;;;;;;;20.48;95.70;100549.77;1759907;78;21286;-91
2022/08/04 04:27:30;;;;;;;26.33;23.92;;;;;;;20.52;96.11;100542.77;1749454;78;20912;-92
2022/08/04 04:30:26;;;;;;;25.68;23.10;;;;;;;20.57;96.27;100533.86;1760602;81;20908;-91
2022/08/04 04:33:18;;;;;;;24.10;21.95;;;;;;;20.60;96.61;100537.52;1760575;78;20920;-92
2022/08/04 04:36:08;;;;;;;23.32;21.25;;;;;;;20.66;96.99;100539.06;1759958;81;21469;-90
2022/08/04 04:38:53;;;;;;;26.02;23.35;;;;;;;20.72;97.20;100541.59;1759277;81;21211;-91
2022/08/04 04:41:26;;;;;;;;;;;;;;;20.76;97.13;100543.42;1762621;81;20877;-89
2022/08/04 04:44:15;;;;;;;24.07;21.80;;;;;;;20.79;97.33;100539.13;1759138;81;20105;-91
2022/08/04 04:47:02;;;;;;;24.95;22.62;;;;;;;20.81;97.40;100541.96;1758916;81;20888;-91
2022/08/04 04:49:48;;;;;;;25.52;23.32;;;;;;;20.86;97.64;100537.48;1759239;81;20971;-93
2022/08/04 04:52:36;;;;;;;26.65;24.10;;;;;;;20.91;97.50;100539.98;1759068;80;21231;-91
2022/08/04 04:55:24;;;;;;;26.05;23.85;;;;;;;20.96;97.19;100546.66;1758887;81;20912;-90
2022/08/04 04:57:52;;;;;;;28.42;25.92;;;;;;;21.00;97.10;100542.17;1758876;80;20908;-91
2022/08/04 05:00:19;;;;;;;23.50;21.17;;;;;;;21.05;96.93;100553.19;1753590;80;20920;-91
2022/08/04 05:03:15;;;;;;;27.70;25.02;;;;;;;21.09;96.69;100555.87;1745303;82;20913;-90
2022/08/04 05:06:08;;;;;;;29.00;26.23;;;;;;;21.13;96.52;100553.72;1718030;81;21814;-90
2022/08/04 05:09:08;;;;;;;35.35;31.80;;;;;;;21.20;96.29;100555.23;1745188;81;21585;-90
2022/08/04 05:11:46;;;;;;;38.33;34.25;;;;;;;21.24;96.24;100561.41;1678410;85;20951;-91
2022/08/04 05:14:21;;;;;;;37.83;33.75;;;;;;;21.31;96.25;100569.09;1678397;84;20933;-92
2022/08/04 05:17:22;;;;;;;42.08;37.60;;;;;;;21.38;96.01;100569.78;1643116;87;20961;-90
2022/08/04 05:20:21;;;;;;;42.08;37.58;;;;;;;21.43;95.90;100571.48;1622633;87;21284;-91
2022/08/04 05:22:56;;;;;;;39.83;35.70;;;;;;;21.50;95.58;100577.86;1621514;87;20946;-90
2022/08/04 05:25:46;;;;;;;36.13;32.42;;;;;;;21.56;95.23;100575.84;1678247;85;20944;-93
2022/08/04 05:28:18;;;;;;;40.30;36.08;;;;;;;21.63;94.71;100582.69;1677523;85;20901;-91
2022/08/04 05:30:52;;;;;;;38.85;34.92;;;;;;;21.68;94.12;100585.21;1678075;85;21038;-90
2022/08/04 05:33:35;;;;;;;37.30;33.30;;;;;;;21.75;93.98;100576.05;1678043;85;21781;-90
2022/08/04 05:36:05;;;;;;;40.58;34.43;;;;;;;21.83;93.39;100581.39;1677595;84;20928;-91
2022/08/04 05:38:38;;;;;;;37.85;34.05;;;;;;;21.92;93.09;100581.72;1678237;85;21498;-89
2022/08/04 05:41:06;;;;;;;35.50;31.65;;;;;;;22.04;92.87;100595.56;1677782;84;20951;-90
2022/08/04 05:43:34;;;;;;;35.08;31.45;;;;;;;22.14;92.62;100596.72;1695738;83;20960;-92
2022/08/04 05:46:01;;;;;;;36.03;32.13;;;;;;;22.22;91.83;100600.76;1695698;84;21813;-91
2022/08/04 05:48:31;;;;;;;36.53;32.90;;;;;;;22.28;91.25;100593.92;1739360;81;20889;-92
2022/08/04 05:50:57;;;;;;;34.25;31.15;;;;;;;22.35;90.65;100597.06;1745794;81;20893;-91
2022/08/04 05:53:24;;;;;;;37.33;33.67;;;;;;;22.42;90.30;100601.23;1745263;81;20965;-92
2022/08/04 05:55:50;;;;;;;35.85;32.35;;;;;;;22.48;89.99;100597.89;1745593;81;20845;-91
2022/08/04 05:58:17;;;;;;;33.20;29.65;;;;;;;22.54;89.66;100597.69;1745364;81;21187;-93
2022/08/04 06:00:43;;;;;;;34.23;30.43;;;;;;;22.55;88.64;100600.20;1748368;80;20884;-90
2022/08/04 06:03:10;;;;;;;35.15;31.52;;;;;;;22.56;88.17;100599.69;1758956;81;20877;-90
2022/08/04 06:05:42;;;;;;;34.38;31.07;;;;;;;22.60;87.69;100609.05;1758947;81;20975;-89
2022/08/04 06:08:08;;;;;;;34.65;31.10;;;;;;;22.63;87.57;100607.35;1759470;81;20917;-92
2022/08/04 06:10:37;;;;;;;30.23;27.40;;;;;;;22.69;87.37;100609.86;1759342;81;21445;-92
2022/08/04 06:13:07;;;;;;;32.78;29.65;;;;;;;22.73;87.13;100605.84;1759261;81;21061;-90
2022/08/04 06:15:37;;;;;;;33.55;30.00;;;;;;;22.76;86.95;100604.98;1759467;81;20885;-90
2022/08/04 06:18:09;;;;;;;33.65;30.20;;;;;;;22.83;86.98;100611.80;1759873;81;20904;-91
2022/08/04 06:20:36;;;;;;;33.00;29.80;;;;;;;22.89;86.90;100611.63;1759437;81;20975;-91
2022/08/04 06:23:10;;;;;;;31.90;28.90;;;;;;;22.94;86.97;100608.78;1759653;81;21171;-90
2022/08/04 06:25:42;;;;;;;33.08;29.72;;;;;;;23.00;86.68;100611.80;1759472;81;20924;-91
2022/08/04 06:28:08;;;;;;;31.23;28.27;;;;;;;23.04;86.19;100611.27;1759580;81;20912;-91
2022/08/04 06:30:36;;;;;;;33.02;30.02;;;;;;;23.09;85.92;100609.41;1759263;81;20916;-88
2022/08/04 06:33:12;;;;;;;33.65;30.43;;;;;;;23.16;85.80;100607.19;1759714;81;20884;-92
2022/08/04 06:35:31;;;;;;;31.80;28.73;;;;;;;23.29;85.89;100612.49;1758957;81;21304;-92
2022/08/04 06:37:58;;;;;;;31.10;28.20;;;;;;;23.42;85.41;100608.73;1761066;78;20908;-88
2022/08/04 06:40:25;;;;;;;30.17;27.48;;;;;;;23.53;84.83;100611.52;1761129;78;20951;-92
2022/08/04 06:42:52;;;;;;;28.62;25.85;;;;;;;23.61;83.76;100611.48;1760968;78;20947;-92
2022/08/04 06:45:19;;;;;;;30.30;27.32;;;;;;;23.71;83.35;100613.91;1744110;78;20951;-92
2022/08/04 06:47:46;;;;;;;30.27;27.67;;;;;;;23.76;82.72;100610.22;1760965;78;21106;-92
2022/08/04 06:50:14;;;;;;;29.65;26.97;;;;;;;23.84;82.48;100607.48;1760732;78;21611;-94
2022/08/04 06:52:43;;;;;;;30.25;27.40;;;;;;;23.92;82.34;100612.79;1760794;78;21034;-92
2022/08/04 06:55:12;;;;;;;32.45;29.27;;;;;;;23.97;80.72;100609.57;1744080;80;20869;-93
2022/08/04 06:57:39;;;;;;;31.15;28.07;;;;;;;23.99;80.16;100610.23;1760953;78;21040;-93
2022/08/04 07:00:11;;;;;;;37.08;33.42;;;;;;;24.00;79.32;100611.36;1761218;78;21040;-92
2022/08/04 07:02:44;;;;;;;33.70;30.25;;;;;;;24.04;78.62;100610.51;1737715;78;20980;-93
2022/08/04 07:05:11;;;;;;;29.18;26.57;;;;;;;24.12;78.59;100608.25;1756086;78;20975;-92
2022/08/04 07:07:39;;;;;;;26.68;24.20;;;;;;;24.23;78.69;100609.67;1756506;78;20889;-91
2022/08/04 07:10:08;;;;;;;28.83;26.23;;;;;;;24.33;78.01;100612.42;1713077;78;20932;-92
2022/08/04 07:12:35;;;;;;;28.73;25.95;;;;;;;24.41;77.89;100608.81;1755843;78;21081;-89
2022/08/04 07:15:04;;;;;;;29.20;26.48;;;;;;;24.49;77.91;100607.95;1755625;78;20951;-90
2022/08/04 07:17:36;;;;;;;28.17;25.75;;;;;;;24.57;77.75;100609.21;1755576;78;20948;-90
2022/08/04 07:20:06;;;;;;;29.27;26.50;;;;;;;24.70;77.62;100607.20;1755326;78;21228;-90
2022/08/04 07:22:33;;;;;;;28.73;26.00;;;;;;;24.78;77.12;100605.27;1755298;78;20904;-90
2022/08/04 07:25:00;;;;;;;28.52;25.92;;;;;;;24.92;76.42;100609.47;1755395;78;21188;-90
2022/08/04 07:27:27;;;;;;;27.37;24.92;;;;;;;25.06;75.89;100607.77;1755892;78;20944;-89
2022/08/04 07:29:53;;;;;;;28.10;25.68;;;;;;;25.24;75.71;100606.91;1756145;79;20862;-89
2022/08/04 07:32:21;;;;;;;28.10;25.50;;;;;;;25.40;75.05;100609.88;1755766;78;20902;-91
2022/08/04 07:34:48;;;;;;;28.57;25.97;;;;;;;25.55;73.74;100609.84;1754861;82;20937;-90
2022/08/04 07:37:15;;;;;;;30.97;28.17;;;;;;;25.65;73.15;100610.34;1754541;82;21451;-90
2022/08/04 07:39:42;;;;;;;30.88;28.27;;;;;;;25.67;72.32;100610.98;1753971;82;20941;-91
2022/08/04 07:42:10;;;;;;;28.17;25.55;;;;;;;25.69;71.30;100615.66;1754787;82;20920;-90
2022/08/04 07:44:37;;;;;;;27.95;25.48;;;;;;;25.64;70.76;100617.58;1736438;82;20948;-91
2022/08/04 07:47:06;;;;;;;26.48;24.20;;;;;;;25.60;70.89;100615.47;1754794;82;20924;-92
2022/08/04 07:49:33;;;;;;;29.75;27.05;;;;;;;25.56;70.18;100615.00;1755826;82;21186;-92
2022/08/04 07:52:01;;;;;;;28.23;25.40;;;;;;;25.51;69.50;100620.64;1755231;81;20889;-90
2022/08/04 07:54:28;;;;;;;28.25;25.65;;;;;;;25.46;69.75;100621.21;1754344;82;20932;-91
2022/08/04 07:56:57;;;;;;;31.17;28.38;;;;;;;25.48;69.98;100615.63;1735877;82;20944;-90
2022/08/04 07:59:25;;;;;;;31.90;28.90;;;;;;;25.55;70.23;100615.22;1753824;81;21374;-92
2022/08/04 08:01:52;;;;;;;34.10;31.02;;;;;;;25.60;69.62;100617.63;1756475;80;21246;-92
2022/08/04 09:46:00;;;;;;;26.12;23.45;;;;;;;26.27;63.86;100624.98;1887060;74;22489;-91
2022/08/04 09:48:34;;;;;;;27.60;24.70;;;;;;;26.13;63.40;100627.27;1864070;76;21188;-91
2022/08/04 09:51:04;;;;;;;28.55;25.85;;;;;;;26.03;63.33;100622.20;1864003;77;21235;-91
2022/08/04 09:53:54;;;;;;;29.70;26.80;;;;;;;25.99;64.04;100622.27;1863982;76;20962;-91
2022/08/04 09:56:41;;;;;;;25.45;22.80;;;;;;;25.95;64.45;100628.55;1859844;77;20903;-90
2022/08/04 09:59:29;;;;;;;26.20;23.45;;;;;;;25.92;64.31;100628.09;1864032;77;21083;-90
2022/08/04 10:02:01;;;;;;;25.05;21.05;;;;;;;25.90;63.81;100622.94;1863710;76;20986;-90
2022/08/04 10:04:29;;;;;;;26.42;23.70;;;;;;;25.89;63.52;100629.84;1862482;77;21163;-90
2022/08/04 10:07:34;;;;;;;24.35;21.97;;;;;;;25.88;64.15;100620.95;1860819;76;20880;-90
2022/08/04 10:10:27;;;;;;;23.77;21.42;;;;;;;25.89;64.57;100625.80;1864050;77;20895;-90
2022/08/04 10:13:21;;;;;;;21.85;19.67;;;;;;;25.92;64.87;100627.58;1864103;77;20816;-91
2022/08/04 10:16:24;;;;;;;21.35;19.35;;;;;;;25.96;65.21;100618.11;1863724;77;26522;-92
2022/08/04 10:19:26;;;;;;;23.67;21.33;;;;;;;26.01;65.38;100626.45;1864379;77;21230;-90
2022/08/04 10:22:22;;;;;;;20.15;18.15;;;;;;;26.08;65.03;100627.84;1864115;76;20919;-90
2022/08/04 10:25:15;;;;;;;17.35;15.63;;;;;;;26.16;64.83;100632.24;1864119;77;20974;-90
2022/08/04 10:27:58;;;;;;;19.45;16.45;;;;;;;26.23;64.14;100630.43;1864673;77;21336;-89
2022/08/04 10:30:25;;;;;;;17.40;15.75;;;;;;;26.25;64.54;100632.41;1864019;77;20962;-90
2022/08/04 10:33:24;;;;;;;18.40;16.50;;;;;;;26.28;64.43;100630.70;1864057;77;21191;-90
2022/08/04 10:35:57;;;;;;;19.10;17.15;;;;;;;26.34;64.59;100634.45;1864153;77;21009;-90
2022/08/04 10:38:53;;;;;;;15.68;14.20;;;;;;;26.41;64.81;100628.59;1864432;77;20851;-89
2022/08/04 10:41:46;;;;;;;15.58;14.13;;;;;;;26.46;64.54;100625.66;1863961;77;20966;-90
2022/08/04 10:44:49;;;;;;;18.45;16.57;;;;;;;26.49;63.74;100624.95;1862005;77;20867;-91
2022/08/04 10:47:18;;;;;;;19.92;17.87;;;;;;;26.51;64.01;100618.86;1832106;77;21213;-91
2022/08/04 10:49:57;;;;;;;21.97;19.77;;;;;;;26.54;64.88;100626.00;1862700;77;21331;-92
2022/08/04 10:52:54;;;;;;;22.93;20.72;;;;;;;26.57;64.87;100622.97;1862373;76;20872;-90
2022/08/04 10:55:35;;;;;;;22.85;20.45;;;;;;;26.63;65.04;100623.50;1861685;77;20915;-92
2022/08/04 10:58:09;;;;;;;23.25;20.80;;;;;;;26.71;65.19;100623.05;1860028;77;20922;-90
2022/08/04 11:00:39;;;;;;;22.67;20.48;;;;;;;26.75;65.22;100622.45;1861528;77;21128;-91
2022/08/04 11:03:37;;;;;;;22.48;20.23;;;;;;;26.82;65.14;100622.49;1858491;77;20899;-91
2022/08/04 11:06:04;;;;;;;23.00;20.72;;;;;;;26.86;64.60;100617.86;1861758;77;20887;-91
2022/08/04 11:08:43;;;;;;;25.75;22.95;;;;;;;26.94;64.08;100618.71;1861497;76;20919;-89
2022/08/04 11:11:25;;;;;;;27.95;25.05;;;;;;;27.02;64.48;100626.63;1861550;77;21432;-90
2022/08/04 11:14:17;;;;;;;29.10;24.75;;;;;;;27.06;64.55;100623.33;1861874;77;21240;-90
2022/08/04 11:17:04;;;;;;;24.45;22.07;;;;;;;27.11;64.33;100621.39;1860987;77;20969;-86
2022/08/04 11:19:53;;;;;;;23.45;21.05;;;;;;;27.14;64.05;100625.53;1862298;77;20868;-90
2022/08/04 11:22:28;;;;;;;22.50;20.10;;;;;;;27.15;64.12;100615.09;1861256;76;21448;-91
2022/08/04 11:25:17;;;;;;;24.23;21.85;;;;;;;27.17;63.39;100619.23;1830821;77;20867;-90
2022/08/04 11:27:50;;;;;;;23.00;20.77;;;;;;;27.20;63.29;100615.31;1861241;77;21845;-90
2022/08/04 11:30:16;;;;;;;21.42;19.12;;;;;;;27.20;62.29;100612.09;1861283;77;20939;-90
2022/08/04 11:33:41;;;;;;;19.35;17.45;;;;;;;27.15;60.99;100613.23;1860995;76;20910;-92
2022/08/04 11:36:21;;;;;;;19.20;15.45;;;;;;;27.16;61.45;100613.52;1862061;77;21416;-89
2022/08/04 11:39:10;;;;;;;17.15;15.45;;;;;;;27.20;61.89;100604.02;1862002;77;20911;-90
2022/08/04 11:41:58;;;;;;;13.13;12.07;;;;;;;27.29;61.65;100606.05;1861893;76;21107;-90
2022/08/04 11:44:50;;;;;;;14.25;12.90;;;;;;;27.35;60.06;100609.28;1858793;77;20889;-90
2022/08/04 11:47:52;;;;;;;12.85;11.78;;;;;;;27.39;59.70;100605.16;1850901;76;20941;-90
2022/08/04 11:50:33;;;;;;;13.30;12.10;;;;;;;27.41;59.11;100600.41;1824716;78;20895;-91
2022/08/04 11:53:00;;;;;;;13.93;12.30;;;;;;;27.39;59.73;100600.27;1825308;78;20982;-89
2022/08/04 11:55:27;;;;;;;14.35;12.90;;;;;;;27.39;60.79;100595.73;1825265;78;21224;-90
2022/08/04 11:57:54;;;;;;;15.70;14.25;;;;;;;27.44;61.24;100595.12;1825209;78;20923;-90
2022/08/04 12:00:25;;;;;;;15.03;13.45;;;;;;;27.48;61.73;100596.37;1824260;78;20903;-90
2022/08/04 12:03:35;;;;;;;15.48;13.90;;;;;;;27.52;61.60;100586.00;1825295;78;20860;-90
2022/08/04 12:06:26;;;;;;;14.87;13.13;;;;;;;27.55;61.97;100583.74;1824570;78;20867;-90
2022/08/04 12:09:13;;;;;;;13.70;12.40;;;;;;;27.65;61.54;100575.25;1813208;78;21203;-90
2022/08/04 12:12:19;;;;;;;13.55;12.35;;;;;;;27.73;61.05;100574.23;1824624;78;20923;-89
2022/08/04 12:15:15;;;;;;;11.15;10.15;;;;;;;27.77;60.66;100576.80;1824919;78;20911;-91
2022/08/04 12:18:03;;;;;;;13.10;11.28;;;;;;;27.73;59.74;100567.50;1824534;78;20891;-93
2022/08/04 12:20:30;;;;;;;11.45;10.45;;;;;;;27.68;59.69;100568.94;1827713;77;20966;-91
2022/08/04 12:22:56;;;;;;;10.90;9.83;;;;;;;27.68;59.28;100568.94;1850637;77;21227;-90
2022/08/04 12:25:30;;;;;;;11.28;10.28;;;;;;;27.69;59.38;100567.89;1850244;77;20865;-92
2022/08/04 12:28:07;;;;;;;11.12;10.05;;;;;;;27.68;58.76;100573.48;1850758;77;20956;-90
2022/08/04 12:30:38;;;;;;;11.63;10.45;;;;;;;27.66;59.08;100576.92;1850093;77;20889;-91
2022/08/04 12:33:12;;;;;;;10.20;9.40;;;;;;;27.60;59.32;100574.52;1850228;77;20838;-91
2022/08/04 12:35:52;;;;;;;10.18;9.18;;;;;;;27.57;59.86;100570.05;1850939;77;21081;-90
2022/08/04 12:38:19;;;;;;;10.18;9.28;;;;;;;27.52;59.04;100569.84;1847383;76;20927;-91
2022/08/04 12:40:51;;;;;;;10.28;9.40;;;;;;;27.47;59.59;100573.16;1850900;77;21315;-92
2022/08/04 12:43:38;;;;;;;11.53;10.53;;;;;;;27.46;59.78;100571.51;1824621;77;21461;-91
2022/08/04 12:46:19;;;;;;;12.23;10.10;;;;;;;27.42;60.04;100568.38;1838006;76;21372;-91
2022/08/04 12:48:46;;;;;;;10.03;9.23;;;;;;;27.41;59.93;100568.08;1835044;77;21252;-89
2022/08/04 12:51:14;;;;;;;11.48;10.50;;;;;;;27.40;60.12;100566.92;1836502;77;21333;-91
2022/08/04 12:53:42;;;;;;;11.33;10.20;;;;;;;27.36;59.26;100564.33;1836009;76;20954;-91
2022/08/04 12:56:10;;;;;;;10.88;9.78;;;;;;;27.33;59.69;100567.44;1836898;77;20851;-90
2022/08/04 12:58:44;;;;;;;10.23;9.33;;;;;;;27.28;60.17;100568.05;1836138;76;20946;-90
2022/08/04 13:01:14;;;;;;;10.80;9.45;;;;;;;27.21;59.80;100568.03;1837509;77;21228;-91
2022/08/04 13:03:47;;;;;;;11.60;10.53;;;;;;;27.18;60.40;100567.56;1838091;77;20891;-89
2022/08/04 13:06:15;;;;;;;10.18;9.03;;;;;;;27.16;60.66;100562.37;1837663;77;20831;-91
2022/08/04 13:08:44;;;;;;;12.47;11.43;;;;;;;27.16;60.18;100563.72;1837580;77;20894;-91
2022/08/04 13:11:12;;;;;;;11.68;10.68;;;;;;;27.19;60.77;100555.74;1836615;77;20879;-90
2022/08/04 13:13:39;;;;;;;11.57;10.58;;;;;;;27.20;60.23;100555.55;1836138;77;21144;-90
2022/08/04 13:16:08;;;;;;;11.78;10.68;;;;;;;27.23;60.53;100558.38;1782611;78;20973;-90
2022/08/04 13:18:41;;;;;;;10.38;9.48;;;;;;;27.27;60.43;100551.56;1836102;77;20917;-90
2022/08/04 13:21:17;;;;;;;12.15;11.10;;;;;;;27.29;59.54;100564.30;1836962;77;20898;-90
2022/08/04 13:23:45;;;;;;;12.23;11.22;;;;;;;27.32;58.71;100556.33;1835947;77;20906;-91
2022/08/04 13:26:13;;;;;;;12.13;11.12;;;;;;;27.33;59.21;100558.01;1836422;76;21168;-90
2022/08/04 13:28:44;;;;;;;11.95;10.85;;;;;;;27.31;59.54;100559.55;1835137;77;20894;-91
2022/08/04 13:31:15;;;;;;;13.08;11.90;;;;;;;27.24;58.78;100554.67;1833290;77;20879;-89
2022/08/04 13:33:47;;;;;;;11.88;10.95;;;;;;;27.17;58.91;100560.01;1797772;78;20890;-91
2022/08/04 13:36:17;;;;;;;12.85;11.45;;;;;;;27.09;58.69;100556.14;1814584;79;20996;-89
2022/08/04 13:38:58;;;;;;;13.35;12.13;;;;;;;27.02;58.31;100557.47;1771161;80;21130;-92
2022/08/04 13:41:26;;;;;;;12.68;11.48;;;;;;;26.93;58.53;100554.64;1813113;79;20844;-90
2022/08/04 13:43:57;;;;;;;15.15;13.58;;;;;;;26.84;58.56;100554.50;1796376;78;20843;-91
2022/08/04 13:46:31;;;;;;;13.30;12.03;;;;;;;26.77;57.72;100554.47;1809895;79;20926;-91